Alexandria, Louisiana
Current Conditions -  °F | °C
As of 3:58 AM on Sunday 21 Dec 2014 (Local Time) from KAEX Reporting Station
Haze Haze  
Wind Chill:   Ceiling: Unl
Heat Index:   Visibility: 1.7mi
Dew Point:   Wind: 0mph
Humidity: 96%   Direction: NA
Pressure: 30.14"   Gusts: NA
Location:  31.31°N, 92.44°W
Report Text: KAEX 210958Z 00000KT 1 3/4SM BR CLR 03/02 A3014 RMK AO2 T00280022
Loading
Personal Weather Stations






























Interactive Weather Map New forecast layout! Learn more

10-Day Weather Forecast

Advertisements
Track Severe Weather on mobile